John M Carras — SVBK5 — position and weather

sailwx.info

Track history (hours):
 
Tides and Currents Weather Stations Pressure Air Temp Water Temp Dewpoint Dewpoint Depression Visibility Wind Speed Wind Dir Waves Ship Positions

John M Carras

Last reported at 2014-Jul-09 16:19 UTC. Time now 2014-Jul-24 23:03 UTC.
Position N 23°31' E 118°12'.
Warning: this ship's position is 15 days out of date.

Length 229 m; draft 10.5 m.

Type: Cargo ship. MMSI: 241150000.

Date/timePositionNaut miles runAvg speedWind from/ knotsBaromVisibWave heightAir tempDewpointWater temp
2014-Jul-09 16:19N 23°31' E 118°12'1012.7
2014-Jul-09 15:33N 23°37' E 118°21'4013.1
2014-Jul-09 12:27N 24°00' E 118°57'1312.6
2014-Jul-09 11:24N 24°08' E 119°09'1012.1
2014-Jul-09 10:33N 24°15' E 119°17'1211.8
2014-Jul-09 09:33N 24°23' E 119°27'1211.1
2014-Jul-09 08:31N 24°30' E 119°37'1111.9
2014-Jul-09 07:33N 24°37' E 119°46'1211.7
2014-Jul-09 06:31N 24°45' E 119°56'37111.2
2014-Jul-07 21:33N 30°05' E 123°27'1110.7
2014-Jul-07 20:31N 30°16' E 123°25'1111.8
2014-Jul-07 19:33N 30°27' E 123°23'1912.6
2014-Jul-07 18:05N 30°45' E 123°18'812.9
2014-Jul-07 17:29N 30°52' E 123°13'1313.0
2014-Jul-07 16:30N 30°59' E 123°00'2813.1
2014-Jul-07 14:22N 31°06' E 122°29'910.6
2014-Jul-07 13:32N 31°06' E 122°19'2613.3
2014-Jul-07 11:33N 31°17' E 121°50'1010.4
2014-Jul-07 10:33N 31°21' E 121°39'1010.3
2014-Jul-07 09:33N 31°26' E 121°29'9 9.3
2014-Jul-07 08:33N 31°32' E 121°21'1814.2
2014-Jul-07 07:19N 31°44' E 121°06'1013.5
2014-Jul-07 06:33N 31°49' E 120°55'1413.7
2014-Jul-07 05:33N 32°01' E 120°47'1212.3
2014-Jul-07 04:33N 32°03' E 120°33'1110.7
2014-Jul-07 03:34N 31°59' E 120°21'1212.0
2014-Jul-07 02:34N 31°56' E 120°07'1312.7
2014-Jul-07 01:33N 32°04' E 119°55'  
2014-Jul-01 08:09N 32°18' E 119°51'610.3
2014-Jul-01 07:33N 32°12' E 119°54'1110.9
2014-Jul-01 06:33N 32°02' E 119°57'9 9.0
2014-Jul-01 05:33N 31°57' E 120°06'7 7.0
2014-Jul-01 04:33N 31°56' E 120°14'9 9.3
2014-Jul-01 03:33N 32°01' E 120°24'9 8.8
2014-Jul-01 02:33N 32°03' E 120°34'9 9.2
2014-Jul-01 01:33N 32°01' E 120°44'9 9.1
2014-Jul-01 00:33N 31°55' E 120°53'2310.5
2014-Jun-30 22:22N 31°40' E 121°13'6 6.8
2014-Jun-30 21:33N 31°36' E 121°18'0 0.1
2014-Jun-30 20:21N 31°37' E 121°18'0 0.0
2014-Jun-30 19:27N 31°37' E 121°18'0 0.0
2014-Jun-30 17:18N 31°37' E 121°18'0 0.1
2014-Jun-30 16:27N 31°37' E 121°18'0 0.2
2014-Jun-30 15:21N 31°36' E 121°18'0 0.0
2014-Jun-30 14:33N 31°36' E 121°18'0 0.0
2014-Jun-30 13:18N 31°36' E 121°18'0 0.0
2014-Jun-30 11:27N 31°36' E 121°18'0 0.0
2014-Jun-30 09:15N 31°36' E 121°18'2 2.6
2014-Jun-30 08:33N 31°35' E 121°19'1111.2
2014-Jun-30 07:33N 31°27' E 121°28'8 7.6
2014-Jun-30 06:32N 31°23' E 121°36'1010.0
2014-Jun-30 05:33N 31°17' E 121°45'1613.0
2014-Jun-30 04:18N 31°06' E 121°59'811.1
2014-Jun-30 03:33N 31°03' E 122°09'1110.9
2014-Jun-30 02:34N 31°02' E 122°21'1211.7
2014-Jun-30 01:33N 30°60' E 122°35'10 9.5
2014-Jun-30 00:33N 31°01' E 122°46'4 2.6
2014-Jun-29 23:14N 31°03' E 122°49'0 0.1
2014-Jun-29 21:29N 31°03' E 122°49'0 0.0
2014-Jun-29 18:17N 31°03' E 122°49'0 0.1
2014-Jun-29 17:05N 31°03' E 122°49'  
Track history (hours):
 
Tides and Currents Weather Stations Pressure Air Temp Water Temp Dewpoint Dewpoint Depression Visibility Wind Speed Wind Dir Waves Ship Positions

John M Carras

Last reported at 2014-Jul-09 16:19 UTC. Time now 2014-Jul-24 23:03 UTC.
Position N 23°31' E 118°12'.
Warning: this ship's position is 15 days out of date.

Length 229 m; draft 10.5 m.

Type: Cargo ship. MMSI: 241150000.

Date/timePositionNaut miles runAvg speedWind from/ knotsBaromVisibWave heightAir tempDewpointWater temp
2014-Jul-09 16:19N 23°31' E 118°12'1012.7
2014-Jul-09 15:33N 23°37' E 118°21'4013.1
2014-Jul-09 12:27N 24°00' E 118°57'1312.6
2014-Jul-09 11:24N 24°08' E 119°09'1012.1
2014-Jul-09 10:33N 24°15' E 119°17'1211.8
2014-Jul-09 09:33N 24°23' E 119°27'1211.1
2014-Jul-09 08:31N 24°30' E 119°37'1111.9
2014-Jul-09 07:33N 24°37' E 119°46'1211.7
2014-Jul-09 06:31N 24°45' E 119°56'37111.2
2014-Jul-07 21:33N 30°05' E 123°27'1110.7
2014-Jul-07 20:31N 30°16' E 123°25'1111.8
2014-Jul-07 19:33N 30°27' E 123°23'1912.6
2014-Jul-07 18:05N 30°45' E 123°18'812.9
2014-Jul-07 17:29N 30°52' E 123°13'1313.0
2014-Jul-07 16:30N 30°59' E 123°00'2813.1
2014-Jul-07 14:22N 31°06' E 122°29'910.6
2014-Jul-07 13:32N 31°06' E 122°19'2613.3
2014-Jul-07 11:33N 31°17' E 121°50'1010.4
2014-Jul-07 10:33N 31°21' E 121°39'1010.3
2014-Jul-07 09:33N 31°26' E 121°29'9 9.3
2014-Jul-07 08:33N 31°32' E 121°21'1814.2
2014-Jul-07 07:19N 31°44' E 121°06'1013.5
2014-Jul-07 06:33N 31°49' E 120°55'1413.7
2014-Jul-07 05:33N 32°01' E 120°47'1212.3
2014-Jul-07 04:33N 32°03' E 120°33'1110.7
2014-Jul-07 03:34N 31°59' E 120°21'1212.0
2014-Jul-07 02:34N 31°56' E 120°07'1312.7
2014-Jul-07 01:33N 32°04' E 119°55'  
2014-Jul-01 08:09N 32°18' E 119°51'610.3
2014-Jul-01 07:33N 32°12' E 119°54'1110.9
2014-Jul-01 06:33N 32°02' E 119°57'9 9.0
2014-Jul-01 05:33N 31°57' E 120°06'7 7.0
2014-Jul-01 04:33N 31°56' E 120°14'9 9.3
2014-Jul-01 03:33N 32°01' E 120°24'9 8.8
2014-Jul-01 02:33N 32°03' E 120°34'9 9.2
2014-Jul-01 01:33N 32°01' E 120°44'9 9.1
2014-Jul-01 00:33N 31°55' E 120°53'2310.5
2014-Jun-30 22:22N 31°40' E 121°13'6 6.8
2014-Jun-30 21:33N 31°36' E 121°18'0 0.1
2014-Jun-30 20:21N 31°37' E 121°18'0 0.0
2014-Jun-30 19:27N 31°37' E 121°18'0 0.0
2014-Jun-30 17:18N 31°37' E 121°18'0 0.1
2014-Jun-30 16:27N 31°37' E 121°18'0 0.2
2014-Jun-30 15:21N 31°36' E 121°18'0 0.0
2014-Jun-30 14:33N 31°36' E 121°18'0 0.0
2014-Jun-30 13:18N 31°36' E 121°18'0 0.0
2014-Jun-30 11:27N 31°36' E 121°18'0 0.0
2014-Jun-30 09:15N 31°36' E 121°18'2 2.6
2014-Jun-30 08:33N 31°35' E 121°19'1111.2
2014-Jun-30 07:33N 31°27' E 121°28'8 7.6
2014-Jun-30 06:32N 31°23' E 121°36'1010.0
2014-Jun-30 05:33N 31°17' E 121°45'1613.0
2014-Jun-30 04:18N 31°06' E 121°59'811.1
2014-Jun-30 03:33N 31°03' E 122°09'1110.9
2014-Jun-30 02:34N 31°02' E 122°21'1211.7
2014-Jun-30 01:33N 30°60' E 122°35'10 9.5
2014-Jun-30 00:33N 31°01' E 122°46'4 2.6
2014-Jun-29 23:14N 31°03' E 122°49'0 0.1
2014-Jun-29 21:29N 31°03' E 122°49'0 0.0
2014-Jun-29 18:17N 31°03' E 122°49'0 0.1
2014-Jun-29 17:05N 31°03' E 122°49'  

Dump ship's entire track history